sensor_id;sensor_type;location;lat;lon;timestamp;P1;P2;P0
69144;PMS7003;56251;50.324;17.574;2022-11-21T00:01:15;31;28;18
69144;PMS7003;56251;50.324;17.574;2022-11-21T00:02:01;31;28;18
69144;PMS7003;56251;50.324;17.574;2022-11-21T00:04:25;52;41;26
69144;PMS7003;56251;50.324;17.574;2022-11-21T00:05:07;52;41;26
69144;PMS7003;56251;50.324;17.574;2022-11-21T00:07:32;59;43;23
69144;PMS7003;56251;50.324;17.574;2022-11-21T00:08:18;55;42;24
69144;PMS7003;56251;50.324;17.574;2022-11-21T00:10:38;46;37;22
69144;PMS7003;56251;50.324;17.574;2022-11-21T00:11:21;54;38;23
69144;PMS7003;56251;50.324;17.574;2022-11-21T00:13:45;38;31;20
69144;PMS7003;56251;50.324;17.574;2022-11-21T00:14:27;41;36;20
69144;PMS7003;56251;50.324;17.574;2022-11-21T00:16:51;57;45;22
69144;PMS7003;56251;50.324;17.574;2022-11-21T00:17:33;57;45;22
69144;PMS7003;56251;50.324;17.574;2022-11-21T00:19:58;39;29;16
69144;PMS7003;56251;50.324;17.574;2022-11-21T00:20:39;39;29;16
69144;PMS7003;56251;50.324;17.574;2022-11-21T00:23:04;38;25;16
69144;PMS7003;56251;50.324;17.574;2022-11-21T00:23:46;38;34;18
69144;PMS7003;56251;50.324;17.574;2022-11-21T00:26:10;32;21;12
69144;PMS7003;56251;50.324;17.574;2022-11-21T00:26:52;30;23;13
69144;PMS7003;56251;50.324;17.574;2022-11-21T00:29:18;32;20;13
69144;PMS7003;56251;50.324;17.574;2022-11-21T00:29:58;24;24;14
69144;PMS7003;56251;50.324;17.574;2022-11-21T00:32:25;28;17;11
69144;PMS7003;56251;50.324;17.574;2022-11-21T00:33:04;28;17;11
69144;PMS7003;56251;50.324;17.574;2022-11-21T00:35:31;27;20;14
69144;PMS7003;56251;50.324;17.574;2022-11-21T00:36:10;27;20;14
69144;PMS7003;56251;50.324;17.574;2022-11-21T00:38:37;17;14;8
69144;PMS7003;56251;50.324;17.574;2022-11-21T00:39:16;28;23;18
69144;PMS7003;56251;50.324;17.574;2022-11-21T00:41:43;20;18;13
69144;PMS7003;56251;50.324;17.574;2022-11-21T00:42:22;24;19;12
69144;PMS7003;56251;50.324;17.574;2022-11-21T00:44:50;45;30;17
69144;PMS7003;56251;50.324;17.574;2022-11-21T00:45:28;32;28;14
69144;PMS7003;56251;50.324;17.574;2022-11-21T00:47:56;37;29;16
69144;PMS7003;56251;50.324;17.574;2022-11-21T00:48:34;37;29;16
69144;PMS7003;56251;50.324;17.574;2022-11-21T00:51:03;33;32;21
69144;PMS7003;56251;50.324;17.574;2022-11-21T00:51:40;33;32;21
69144;PMS7003;56251;50.324;17.574;2022-11-21T00:54:09;43;26;15
69144;PMS7003;56251;50.324;17.574;2022-11-21T00:54:46;38;32;19
69144;PMS7003;56251;50.324;17.574;2022-11-21T00:57:15;28;25;18
69144;PMS7003;56251;50.324;17.574;2022-11-21T00:57:52;32;24;15
69144;PMS7003;56251;50.324;17.574;2022-11-21T01:00:21;29;20;10
69144;PMS7003;56251;50.324;17.574;2022-11-21T01:01:02;25;15;10
69144;PMS7003;56251;50.324;17.574;2022-11-21T01:03:27;26;26;14
69144;PMS7003;56251;50.324;17.574;2022-11-21T01:04:09;26;26;14
69144;PMS7003;56251;50.324;17.574;2022-11-21T01:06:35;17;16;10
69144;PMS7003;56251;50.324;17.574;2022-11-21T01:07:15;17;16;10
69144;PMS7003;56251;50.324;17.574;2022-11-21T01:09:41;20;15;10
69144;PMS7003;56251;50.324;17.574;2022-11-21T01:10:21;27;23;15
69144;PMS7003;56251;50.324;17.574;2022-11-21T01:12:48;21;19;14
69144;PMS7003;56251;50.324;17.574;2022-11-21T01:13:27;20;18;12
69144;PMS7003;56251;50.324;17.574;2022-11-21T01:15:54;27;26;17
69144;PMS7003;56251;50.324;17.574;2022-11-21T01:16:33;36;29;19
69144;PMS7003;56251;50.324;17.574;2022-11-21T01:19:00;30;20;10
69144;PMS7003;56251;50.324;17.574;2022-11-21T01:19:39;30;20;10
69144;PMS7003;56251;50.324;17.574;2022-11-21T01:22:06;22;22;13
69144;PMS7003;56251;50.324;17.574;2022-11-21T01:22:45;22;22;13
69144;PMS7003;56251;50.324;17.574;2022-11-21T01:25:12;20;16;11
69144;PMS7003;56251;50.324;17.574;2022-11-21T01:25:51;40;27;14
69144;PMS7003;56251;50.324;17.574;2022-11-21T01:28:19;38;23;13
69144;PMS7003;56251;50.324;17.574;2022-11-21T01:28:57;55;36;22
69144;PMS7003;56251;50.324;17.574;2022-11-21T01:31:26;42;37;20
69144;PMS7003;56251;50.324;17.574;2022-11-21T01:32:04;39;34;21
69144;PMS7003;56251;50.324;17.574;2022-11-21T01:34:33;50;40;26
69144;PMS7003;56251;50.324;17.574;2022-11-21T01:35:10;50;40;26
69144;PMS7003;56251;50.324;17.574;2022-11-21T01:37:39;44;31;18
69144;PMS7003;56251;50.324;17.574;2022-11-21T01:38:16;44;31;18
69144;PMS7003;56251;50.324;17.574;2022-11-21T01:40:45;29;25;18
69144;PMS7003;56251;50.324;17.574;2022-11-21T01:41:23;64;53;30
69144;PMS7003;56251;50.324;17.574;2022-11-21T01:43:51;87;75;35
69144;PMS7003;56251;50.324;17.574;2022-11-21T01:44:49;64;49;29
69144;PMS7003;56251;50.324;17.574;2022-11-21T01:46:57;39;29;17
69144;PMS7003;56251;50.324;17.574;2022-11-21T01:47:55;53;38;22
69144;PMS7003;56251;50.324;17.574;2022-11-21T01:50:04;28;26;19
69144;PMS7003;56251;50.324;17.574;2022-11-21T01:51:03;30;28;18
69144;PMS7003;56251;50.324;17.574;2022-11-21T01:53:10;49;35;22
69144;PMS7003;56251;50.324;17.574;2022-11-21T01:56:16;41;31;19
69144;PMS7003;56251;50.324;17.574;2022-11-21T01:57:27;29;25;16
69144;PMS7003;56251;50.324;17.574;2022-11-21T01:59:33;35;29;15
69144;PMS7003;56251;50.324;17.574;2022-11-21T02:00:41;20;19;14
69144;PMS7003;56251;50.324;17.574;2022-11-21T02:02:40;17;15;10
69144;PMS7003;56251;50.324;17.574;2022-11-21T02:03:49;14;14;10
69144;PMS7003;56251;50.324;17.574;2022-11-21T02:05:48;35;26;18
69144;PMS7003;56251;50.324;17.574;2022-11-21T02:06:57;29;21;11
69144;PMS7003;56251;50.324;17.574;2022-11-21T02:08:54;29;18;12
69144;PMS7003;56251;50.324;17.574;2022-11-21T02:10:05;14;14;11
69144;PMS7003;56251;50.324;17.574;2022-11-21T02:12:13;10;9;5
69144;PMS7003;56251;50.324;17.574;2022-11-21T02:13:14;17;15;9
69144;PMS7003;56251;50.324;17.574;2022-11-21T02:15:27;40;29;15
69144;PMS7003;56251;50.324;17.574;2022-11-21T02:16:21;40;29;15
69144;PMS7003;56251;50.324;17.574;2022-11-21T02:18:34;27;18;9
69144;PMS7003;56251;50.324;17.574;2022-11-21T02:19:44;21;15;12
69144;PMS7003;56251;50.324;17.574;2022-11-21T02:23:05;24;20;13
69144;PMS7003;56251;50.324;17.574;2022-11-21T02:26:10;16;12;9
69144;PMS7003;56251;50.324;17.574;2022-11-21T02:28:25;13;13;8
69144;PMS7003;56251;50.324;17.574;2022-11-21T02:29:17;32;18;13
69144;PMS7003;56251;50.324;17.574;2022-11-21T02:31:31;24;21;14
69144;PMS7003;56251;50.324;17.574;2022-11-21T02:32:31;24;23;13
69144;PMS7003;56251;50.324;17.574;2022-11-21T02:34:37;16;12;9
69144;PMS7003;56251;50.324;17.574;2022-11-21T02:35:32;22;17;10
69144;PMS7003;56251;50.324;17.574;2022-11-21T02:37:44;17;16;11
69144;PMS7003;56251;50.324;17.574;2022-11-21T02:38:38;17;16;11
69144;PMS7003;56251;50.324;17.574;2022-11-21T02:41:02;23;14;12
69144;PMS7003;56251;50.324;17.574;2022-11-21T02:41:49;21;14;9
69144;PMS7003;56251;50.324;17.574;2022-11-21T02:44:19;10;8;6
69144;PMS7003;56251;50.324;17.574;2022-11-21T02:47:25;10;9;6
69144;PMS7003;56251;50.324;17.574;2022-11-21T02:48:21;14;9;8
69144;PMS7003;56251;50.324;17.574;2022-11-21T02:50:33;15;14;10
69144;PMS7003;56251;50.324;17.574;2022-11-21T02:51:27;18;18;12
69144;PMS7003;56251;50.324;17.574;2022-11-21T02:53:41;8;8;7
69144;PMS7003;56251;50.324;17.574;2022-11-21T02:54:37;17;17;10
69144;PMS7003;56251;50.324;17.574;2022-11-21T02:56:50;17;16;14
69144;PMS7003;56251;50.324;17.574;2022-11-21T02:57:43;17;16;14
69144;PMS7003;56251;50.324;17.574;2022-11-21T02:59:56;24;18;10
69144;PMS7003;56251;50.324;17.574;2022-11-21T03:00:49;9;9;6
69144;PMS7003;56251;50.324;17.574;2022-11-21T03:03:02;14;12;9
69144;PMS7003;56251;50.324;17.574;2022-11-21T03:03:55;21;13;8
69144;PMS7003;56251;50.324;17.574;2022-11-21T03:06:08;9;9;6
69144;PMS7003;56251;50.324;17.574;2022-11-21T03:07:02;21;8;3
69144;PMS7003;56251;50.324;17.574;2022-11-21T03:09:14;14;8;5
69144;PMS7003;56251;50.324;17.574;2022-11-21T03:10:08;17;12;9
69144;PMS7003;56251;50.324;17.574;2022-11-21T03:12:20;26;18;12
69144;PMS7003;56251;50.324;17.574;2022-11-21T03:13:15;26;18;12
69144;PMS7003;56251;50.324;17.574;2022-11-21T03:15:27;12;12;8
69144;PMS7003;56251;50.324;17.574;2022-11-21T03:16:21;19;19;9
69144;PMS7003;56251;50.324;17.574;2022-11-21T03:18:34;15;14;11
69144;PMS7003;56251;50.324;17.574;2022-11-21T03:19:27;14;14;8
69144;PMS7003;56251;50.324;17.574;2022-11-21T03:21:40;28;23;9
69144;PMS7003;56251;50.324;17.574;2022-11-21T03:22:33;14;13;8
69144;PMS7003;56251;50.324;17.574;2022-11-21T03:24:46;18;15;13
69144;PMS7003;56251;50.324;17.574;2022-11-21T03:25:39;9;9;6
69144;PMS7003;56251;50.324;17.574;2022-11-21T03:27:53;6;6;3
69144;PMS7003;56251;50.324;17.574;2022-11-21T03:28:45;6;6;3
69144;PMS7003;56251;50.324;17.574;2022-11-21T03:30:59;9;9;7
69144;PMS7003;56251;50.324;17.574;2022-11-21T03:31:51;17;17;7
69144;PMS7003;56251;50.324;17.574;2022-11-21T03:34:05;15;12;7
69144;PMS7003;56251;50.324;17.574;2022-11-21T03:34:57;14;12;10
69144;PMS7003;56251;50.324;17.574;2022-11-21T03:37:12;14;14;7
69144;PMS7003;56251;50.324;17.574;2022-11-21T03:38:03;10;10;8
69144;PMS7003;56251;50.324;17.574;2022-11-21T03:40:18;16;14;9
69144;PMS7003;56251;50.324;17.574;2022-11-21T03:41:10;16;12;8
69144;PMS7003;56251;50.324;17.574;2022-11-21T03:43:24;18;17;8
69144;PMS7003;56251;50.324;17.574;2022-11-21T03:44:34;20;17;12
69144;PMS7003;56251;50.324;17.574;2022-11-21T03:46:31;9;9;8
69144;PMS7003;56251;50.324;17.574;2022-11-21T03:47:40;19;16;7
69144;PMS7003;56251;50.324;17.574;2022-11-21T03:49:37;7;7;5
69144;PMS7003;56251;50.324;17.574;2022-11-21T03:50:47;23;14;10
69144;PMS7003;56251;50.324;17.574;2022-11-21T03:52:44;17;12;9
69144;PMS7003;56251;50.324;17.574;2022-11-21T03:53:53;10;10;7
69144;PMS7003;56251;50.324;17.574;2022-11-21T03:55:50;17;15;11
69144;PMS7003;56251;50.324;17.574;2022-11-21T03:56:59;19;17;9
69144;PMS7003;56251;50.324;17.574;2022-11-21T03:58:55;15;13;10
69144;PMS7003;56251;50.324;17.574;2022-11-21T04:00:06;15;15;11
69144;PMS7003;56251;50.324;17.574;2022-11-21T04:02:02;28;23;15
69144;PMS7003;56251;50.324;17.574;2022-11-21T04:03:20;25;25;17
69144;PMS7003;56251;50.324;17.574;2022-11-21T04:05:08;23;23;15
69144;PMS7003;56251;50.324;17.574;2022-11-21T04:06:26;19;18;12
69144;PMS7003;56251;50.324;17.574;2022-11-21T04:08:14;53;37;21
69144;PMS7003;56251;50.324;17.574;2022-11-21T04:09:34;37;34;23
69144;PMS7003;56251;50.324;17.574;2022-11-21T04:11:20;36;33;22
69144;PMS7003;56251;50.324;17.574;2022-11-21T04:12:40;18;17;11
69144;PMS7003;56251;50.324;17.574;2022-11-21T04:14:28;21;20;13
69144;PMS7003;56251;50.324;17.574;2022-11-21T04:15:46;20;13;9
69144;PMS7003;56251;50.324;17.574;2022-11-21T04:17:36;9;9;8
69144;PMS7003;56251;50.324;17.574;2022-11-21T04:18:56;13;11;9
69144;PMS7003;56251;50.324;17.574;2022-11-21T04:20:43;15;10;8
69144;PMS7003;56251;50.324;17.574;2022-11-21T04:22:02;14;13;7
69144;PMS7003;56251;50.324;17.574;2022-11-21T04:23:49;7;7;6
69144;PMS7003;56251;50.324;17.574;2022-11-21T04:25:08;6;6;4
69144;PMS7003;56251;50.324;17.574;2022-11-21T04:26:56;12;10;7
69144;PMS7003;56251;50.324;17.574;2022-11-21T04:28:14;13;13;8
69144;PMS7003;56251;50.324;17.574;2022-11-21T04:30:02;12;8;5
69144;PMS7003;56251;50.324;17.574;2022-11-21T04:31:23;8;8;6
69144;PMS7003;56251;50.324;17.574;2022-11-21T04:33:09;8;8;4
69144;PMS7003;56251;50.324;17.574;2022-11-21T04:34:31;9;9;6
69144;PMS7003;56251;50.324;17.574;2022-11-21T04:36:21;8;8;5
69144;PMS7003;56251;50.324;17.574;2022-11-21T04:37:38;6;6;4
69144;PMS7003;56251;50.324;17.574;2022-11-21T04:39:26;11;9;6
69144;PMS7003;56251;50.324;17.574;2022-11-21T04:40:44;21;17;9
69144;PMS7003;56251;50.324;17.574;2022-11-21T04:42:32;10;10;8
69144;PMS7003;56251;50.324;17.574;2022-11-21T04:43:50;16;16;8
69144;PMS7003;56251;50.324;17.574;2022-11-21T04:45:38;20;13;11
69144;PMS7003;56251;50.324;17.574;2022-11-21T04:46:56;12;12;8
69144;PMS7003;56251;50.324;17.574;2022-11-21T04:48:44;14;12;10
69144;PMS7003;56251;50.324;17.574;2022-11-21T04:50:04;4;4;4
69144;PMS7003;56251;50.324;17.574;2022-11-21T04:51:50;8;8;5
69144;PMS7003;56251;50.324;17.574;2022-11-21T04:53:11;19;12;9
69144;PMS7003;56251;50.324;17.574;2022-11-21T04:54:57;10;6;1
69144;PMS7003;56251;50.324;17.574;2022-11-21T04:56:17;13;13;10
69144;PMS7003;56251;50.324;17.574;2022-11-21T04:58:03;16;16;12
69144;PMS7003;56251;50.324;17.574;2022-11-21T04:59:23;12;12;9
69144;PMS7003;56251;50.324;17.574;2022-11-21T05:01:09;13;8;7
69144;PMS7003;56251;50.324;17.574;2022-11-21T05:02:29;11;10;7
69144;PMS7003;56251;50.324;17.574;2022-11-21T05:04:16;13;13;7
69144;PMS7003;56251;50.324;17.574;2022-11-21T05:05:37;30;22;15
69144;PMS7003;56251;50.324;17.574;2022-11-21T05:07:22;52;43;26
69144;PMS7003;56251;50.324;17.574;2022-11-21T05:08:43;50;42;27
69144;PMS7003;56251;50.324;17.574;2022-11-21T05:10:28;65;50;30
69144;PMS7003;56251;50.324;17.574;2022-11-21T05:11:49;61;48;29
69144;PMS7003;56251;50.324;17.574;2022-11-21T05:13:34;71;58;33
69144;PMS7003;56251;50.324;17.574;2022-11-21T05:15:33;62;52;34
69144;PMS7003;56251;50.324;17.574;2022-11-21T05:16:40;69;55;32
69144;PMS7003;56251;50.324;17.574;2022-11-21T05:18:42;45;39;26
69144;PMS7003;56251;50.324;17.574;2022-11-21T05:19:47;61;48;31
69144;PMS7003;56251;50.324;17.574;2022-11-21T05:21:48;42;33;18
69144;PMS7003;56251;50.324;17.574;2022-11-21T05:22:53;67;46;28
69144;PMS7003;56251;50.324;17.574;2022-11-21T05:24:55;50;42;25
69144;PMS7003;56251;50.324;17.574;2022-11-21T05:25:59;57;46;31
69144;PMS7003;56251;50.324;17.574;2022-11-21T05:28:07;39;35;23
69144;PMS7003;56251;50.324;17.574;2022-11-21T05:29:05;39;35;23
69144;PMS7003;56251;50.324;17.574;2022-11-21T05:31:13;29;25;16
69144;PMS7003;56251;50.324;17.574;2022-11-21T05:32:11;19;18;11
69144;PMS7003;56251;50.324;17.574;2022-11-21T05:34:19;25;21;13
69144;PMS7003;56251;50.324;17.574;2022-11-21T05:35:17;45;32;19
69144;PMS7003;56251;50.324;17.574;2022-11-21T05:37:26;28;23;15
69144;PMS7003;56251;50.324;17.574;2022-11-21T05:38:24;42;36;25
69144;PMS7003;56251;50.324;17.574;2022-11-21T05:40:32;30;27;21
69144;PMS7003;56251;50.324;17.574;2022-11-21T05:41:30;44;36;24
69144;PMS7003;56251;50.324;17.574;2022-11-21T05:43:38;47;39;26
69144;PMS7003;56251;50.324;17.574;2022-11-21T05:44:36;47;39;26
69144;PMS7003;56251;50.324;17.574;2022-11-21T05:46:54;44;39;27
69144;PMS7003;56251;50.324;17.574;2022-11-21T05:47:42;47;40;25
69144;PMS7003;56251;50.324;17.574;2022-11-21T05:50:00;48;38;23
69144;PMS7003;56251;50.324;17.574;2022-11-21T05:50:48;43;37;27
69144;PMS7003;56251;50.324;17.574;2022-11-21T05:53:06;46;38;25
69144;PMS7003;56251;50.324;17.574;2022-11-21T05:53:54;33;30;21
69144;PMS7003;56251;50.324;17.574;2022-11-21T05:56:13;28;21;14
69144;PMS7003;56251;50.324;17.574;2022-11-21T05:57:01;16;15;11
69144;PMS7003;56251;50.324;17.574;2022-11-21T05:59:20;16;16;13
69144;PMS7003;56251;50.324;17.574;2022-11-21T06:00:10;16;16;13
69144;PMS7003;56251;50.324;17.574;2022-11-21T06:02:26;14;13;9
69144;PMS7003;56251;50.324;17.574;2022-11-21T06:03:17;18;15;9
69144;PMS7003;56251;50.324;17.574;2022-11-21T06:06:11;14;14;11
69144;PMS7003;56251;50.324;17.574;2022-11-21T06:06:35;13;6;5
69144;PMS7003;56251;50.324;17.574;2022-11-21T06:09:19;12;11;8
69144;PMS7003;56251;50.324;17.574;2022-11-21T06:09:41;12;11;8
69144;PMS7003;56251;50.324;17.574;2022-11-21T06:12:25;29;28;18
69144;PMS7003;56251;50.324;17.574;2022-11-21T06:12:48;29;28;18
69144;PMS7003;56251;50.324;17.574;2022-11-21T06:15:31;20;17;8
69144;PMS7003;56251;50.324;17.574;2022-11-21T06:15:57;20;17;8
69144;PMS7003;56251;50.324;17.574;2022-11-21T06:18:38;22;22;9
69144;PMS7003;56251;50.324;17.574;2022-11-21T06:19:07;13;12;7
69144;PMS7003;56251;50.324;17.574;2022-11-21T06:21:48;11;11;5
69144;PMS7003;56251;50.324;17.574;2022-11-21T06:22:13;20;14;8
69144;PMS7003;56251;50.324;17.574;2022-11-21T06:24:54;11;11;7
69144;PMS7003;56251;50.324;17.574;2022-11-21T06:25:19;11;11;7
69144;PMS7003;56251;50.324;17.574;2022-11-21T06:28:00;13;9;6
69144;PMS7003;56251;50.324;17.574;2022-11-21T06:28:28;13;9;6
69144;PMS7003;56251;50.324;17.574;2022-11-21T06:31:07;12;11;6
69144;PMS7003;56251;50.324;17.574;2022-11-21T06:31:38;12;11;6
69144;PMS7003;56251;50.324;17.574;2022-11-21T06:34:14;21;11;7
69144;PMS7003;56251;50.324;17.574;2022-11-21T06:34:44;10;10;4
69144;PMS7003;56251;50.324;17.574;2022-11-21T06:37:20;21;16;11
69144;PMS7003;56251;50.324;17.574;2022-11-21T06:37:50;15;15;11
69144;PMS7003;56251;50.324;17.574;2022-11-21T06:40:26;8;7;5
69144;PMS7003;56251;50.324;17.574;2022-11-21T06:40:56;8;7;5
69144;PMS7003;56251;50.324;17.574;2022-11-21T06:43:32;12;10;7
69144;PMS7003;56251;50.324;17.574;2022-11-21T06:44:03;12;10;7
69144;PMS7003;56251;50.324;17.574;2022-11-21T06:46:40;8;7;6
69144;PMS7003;56251;50.324;17.574;2022-11-21T06:47:09;8;7;6
69144;PMS7003;56251;50.324;17.574;2022-11-21T06:49:46;12;11;8
69144;PMS7003;56251;50.324;17.574;2022-11-21T06:50:15;19;14;10
69144;PMS7003;56251;50.324;17.574;2022-11-21T06:52:52;21;14;9
69144;PMS7003;56251;50.324;17.574;2022-11-21T06:53:21;17;16;10
69144;PMS7003;56251;50.324;17.574;2022-11-21T06:55:59;15;13;7
69144;PMS7003;56251;50.324;17.574;2022-11-21T06:56:29;15;13;7
69144;PMS7003;56251;50.324;17.574;2022-11-21T06:59:08;8;8;5
69144;PMS7003;56251;50.324;17.574;2022-11-21T06:59:36;8;8;5
69144;PMS7003;56251;50.324;17.574;2022-11-21T07:02:15;7;7;5
69144;PMS7003;56251;50.324;17.574;2022-11-21T07:02:42;7;7;5
69144;PMS7003;56251;50.324;17.574;2022-11-21T07:05:23;12;10;8
69144;PMS7003;56251;50.324;17.574;2022-11-21T07:05:48;9;9;7
69144;PMS7003;56251;50.324;17.574;2022-11-21T07:08:30;8;8;5
69144;PMS7003;56251;50.324;17.574;2022-11-21T07:08:56;8;8;6
69144;PMS7003;56251;50.324;17.574;2022-11-21T07:11:37;7;7;6
69144;PMS7003;56251;50.324;17.574;2022-11-21T07:12:02;7;7;6
69144;PMS7003;56251;50.324;17.574;2022-11-21T07:14:43;12;12;7
69144;PMS7003;56251;50.324;17.574;2022-11-21T07:15:48;6;6;5
69144;PMS7003;56251;50.324;17.574;2022-11-21T07:17:50;7;7;5
69144;PMS7003;56251;50.324;17.574;2022-11-21T07:18:57;13;5;4
69144;PMS7003;56251;50.324;17.574;2022-11-21T07:21:00;8;8;7
69144;PMS7003;56251;50.324;17.574;2022-11-21T07:22:04;11;10;7
69144;PMS7003;56251;50.324;17.574;2022-11-21T07:24:07;13;11;6
69144;PMS7003;56251;50.324;17.574;2022-11-21T07:25:12;9;9;7
69144;PMS7003;56251;50.324;17.574;2022-11-21T07:27:13;11;11;8
69144;PMS7003;56251;50.324;17.574;2022-11-21T07:28:20;16;9;8
69144;PMS7003;56251;50.324;17.574;2022-11-21T07:30:19;14;7;7
69144;PMS7003;56251;50.324;17.574;2022-11-21T07:31:26;12;11;9
69144;PMS7003;56251;50.324;17.574;2022-11-21T07:33:26;8;8;6
69144;PMS7003;56251;50.324;17.574;2022-11-21T07:34:33;6;6;5
69144;PMS7003;56251;50.324;17.574;2022-11-21T07:36:32;7;7;5
69144;PMS7003;56251;50.324;17.574;2022-11-21T07:37:39;7;7;7
69144;PMS7003;56251;50.324;17.574;2022-11-21T07:39:40;9;9;6
69144;PMS7003;56251;50.324;17.574;2022-11-21T07:40:45;17;10;6
69144;PMS7003;56251;50.324;17.574;2022-11-21T07:42:47;5;4;3
69144;PMS7003;56251;50.324;17.574;2022-11-21T07:43:51;5;4;4
69144;PMS7003;56251;50.324;17.574;2022-11-21T07:45:59;5;5;3
69144;PMS7003;56251;50.324;17.574;2022-11-21T07:46:58;5;5;3
69144;PMS7003;56251;50.324;17.574;2022-11-21T07:49:06;5;5;3
69144;PMS7003;56251;50.324;17.574;2022-11-21T07:50:05;7;7;5
69144;PMS7003;56251;50.324;17.574;2022-11-21T07:52:12;10;10;7
69144;PMS7003;56251;50.324;17.574;2022-11-21T07:53:12;15;15;9
69144;PMS7003;56251;50.324;17.574;2022-11-21T07:55:18;11;11;6
69144;PMS7003;56251;50.324;17.574;2022-11-21T07:56:18;14;7;5
69144;PMS7003;56251;50.324;17.574;2022-11-21T07:58:24;5;5;4
69144;PMS7003;56251;50.324;17.574;2022-11-21T07:59:24;7;7;7
69144;PMS7003;56251;50.324;17.574;2022-11-21T08:01:33;7;7;6
69144;PMS7003;56251;50.324;17.574;2022-11-21T08:02:37;6;5;4
69144;PMS7003;56251;50.324;17.574;2022-11-21T08:04:39;6;6;4
69144;PMS7003;56251;50.324;17.574;2022-11-21T08:05:43;9;9;5
69144;PMS7003;56251;50.324;17.574;2022-11-21T08:07:46;2;2;1
69144;PMS7003;56251;50.324;17.574;2022-11-21T08:08:53;6;6;6
69144;PMS7003;56251;50.324;17.574;2022-11-21T08:10:52;4;3;2
69144;PMS7003;56251;50.324;17.574;2022-11-21T08:12:00;5;5;4
69144;PMS7003;56251;50.324;17.574;2022-11-21T08:13:58;5;5;4
69144;PMS7003;56251;50.324;17.574;2022-11-21T08:15:06;3;3;3
69144;PMS7003;56251;50.324;17.574;2022-11-21T08:17:04;6;5;5
69144;PMS7003;56251;50.324;17.574;2022-11-21T08:18:14;7;7;6
69144;PMS7003;56251;50.324;17.574;2022-11-21T08:20:11;3;3;3
69144;PMS7003;56251;50.324;17.574;2022-11-21T08:21:29;3;3;2
69144;PMS7003;56251;50.324;17.574;2022-11-21T08:23:17;7;7;6
69144;PMS7003;56251;50.324;17.574;2022-11-21T08:24:35;9;9;7
69144;PMS7003;56251;50.324;17.574;2022-11-21T08:26:23;3;2;2
69144;PMS7003;56251;50.324;17.574;2022-11-21T08:27:42;4;4;3
69144;PMS7003;56251;50.324;17.574;2022-11-21T08:29:30;5;5;4
69144;PMS7003;56251;50.324;17.574;2022-11-21T08:30:48;5;4;3
69144;PMS7003;56251;50.324;17.574;2022-11-21T08:32:36;4;4;4
69144;PMS7003;56251;50.324;17.574;2022-11-21T08:33:55;5;3;2
69144;PMS7003;56251;50.324;17.574;2022-11-21T08:35:42;5;5;3
69144;PMS7003;56251;50.324;17.574;2022-11-21T08:37:01;7;7;5
69144;PMS7003;56251;50.324;17.574;2022-11-21T08:38:48;19;19;13
69144;PMS7003;56251;50.324;17.574;2022-11-21T08:40:08;8;8;6
69144;PMS7003;56251;50.324;17.574;2022-11-21T08:41:55;12;12;8
69144;PMS7003;56251;50.324;17.574;2022-11-21T08:43:14;6;6;5
69144;PMS7003;56251;50.324;17.574;2022-11-21T08:45:07;7;7;5
69144;PMS7003;56251;50.324;17.574;2022-11-21T08:46:21;4;4;3
69144;PMS7003;56251;50.324;17.574;2022-11-21T08:48:14;7;7;6
69144;PMS7003;56251;50.324;17.574;2022-11-21T08:49:29;10;9;8
69144;PMS7003;56251;50.324;17.574;2022-11-21T08:51:22;6;6;5
69144;PMS7003;56251;50.324;17.574;2022-11-21T08:52:35;7;6;4
69144;PMS7003;56251;50.324;17.574;2022-11-21T08:54:28;17;17;9
69144;PMS7003;56251;50.324;17.574;2022-11-21T08:55:47;10;10;7
69144;PMS7003;56251;50.324;17.574;2022-11-21T08:57:37;12;10;9
69144;PMS7003;56251;50.324;17.574;2022-11-21T08:58:53;16;13;9
69144;PMS7003;56251;50.324;17.574;2022-11-21T09:00:44;34;32;21
69144;PMS7003;56251;50.324;17.574;2022-11-21T09:02:02;51;41;26
69144;PMS7003;56251;50.324;17.574;2022-11-21T09:03:50;45;39;28
69144;PMS7003;56251;50.324;17.574;2022-11-21T09:05:09;32;22;20
69144;PMS7003;56251;50.324;17.574;2022-11-21T09:06:56;23;23;19
69144;PMS7003;56251;50.324;17.574;2022-11-21T09:08:15;30;20;14
69144;PMS7003;56251;50.324;17.574;2022-11-21T09:10:02;23;19;14
69144;PMS7003;56251;50.324;17.574;2022-11-21T09:11:21;30;26;16
69144;PMS7003;56251;50.324;17.574;2022-11-21T09:13:09;23;23;19
69144;PMS7003;56251;50.324;17.574;2022-11-21T09:14:29;27;21;15
69144;PMS7003;56251;50.324;17.574;2022-11-21T09:16:15;33;31;21
69144;PMS7003;56251;50.324;17.574;2022-11-21T09:18:13;37;32;17
69144;PMS7003;56251;50.324;17.574;2022-11-21T09:19:59;51;44;25
69144;PMS7003;56251;50.324;17.574;2022-11-21T09:21:19;50;39;25
69144;PMS7003;56251;50.324;17.574;2022-11-21T09:23:09;44;38;22
69144;PMS7003;56251;50.324;17.574;2022-11-21T09:24:26;52;41;26
69144;PMS7003;56251;50.324;17.574;2022-11-21T09:26:19;39;32;23
69144;PMS7003;56251;50.324;17.574;2022-11-21T09:27:33;36;32;23
69144;PMS7003;56251;50.324;17.574;2022-11-21T09:29:25;52;44;28
69144;PMS7003;56251;50.324;17.574;2022-11-21T09:30:39;48;41;27
69144;PMS7003;56251;50.324;17.574;2022-11-21T09:32:34;40;35;25
69144;PMS7003;56251;50.324;17.574;2022-11-21T09:33:46;52;41;29
69144;PMS7003;56251;50.324;17.574;2022-11-21T09:35:41;46;39;28
69144;PMS7003;56251;50.324;17.574;2022-11-21T09:36:52;48;41;26
69144;PMS7003;56251;50.324;17.574;2022-11-21T09:38:47;44;36;26
69144;PMS7003;56251;50.324;17.574;2022-11-21T09:40:00;36;33;24
69144;PMS7003;56251;50.324;17.574;2022-11-21T09:42:00;40;35;22
69144;PMS7003;56251;50.324;17.574;2022-11-21T09:43:13;49;38;25
69144;PMS7003;56251;50.324;17.574;2022-11-21T09:45:23;45;36;26
69144;PMS7003;56251;50.324;17.574;2022-11-21T09:46:40;37;33;23
69144;PMS7003;56251;50.324;17.574;2022-11-21T09:49:52;45;38;25
69144;PMS7003;56251;50.324;17.574;2022-11-21T09:51:56;46;40;28
69144;PMS7003;56251;50.324;17.574;2022-11-21T09:53:04;43;37;22
69144;PMS7003;56251;50.324;17.574;2022-11-21T09:55:05;36;33;23
69144;PMS7003;56251;50.324;17.574;2022-11-21T09:56:16;37;34;26
69144;PMS7003;56251;50.324;17.574;2022-11-21T09:58:19;28;23;17
69144;PMS7003;56251;50.324;17.574;2022-11-21T09:59:36;28;25;16
69144;PMS7003;56251;50.324;17.574;2022-11-21T10:01:34;16;14;11
69144;PMS7003;56251;50.324;17.574;2022-11-21T10:02:44;27;21;17
69144;PMS7003;56251;50.324;17.574;2022-11-21T10:04:42;31;29;20
69144;PMS7003;56251;50.324;17.574;2022-11-21T10:05:54;35;31;22
69144;PMS7003;56251;50.324;17.574;2022-11-21T10:07:48;39;30;22
69144;PMS7003;56251;50.324;17.574;2022-11-21T10:11:03;62;45;32
69144;PMS7003;56251;50.324;17.574;2022-11-21T10:12:59;76;64;41